sensor_id;sensor_type;location;lat;lon;timestamp;P1;durP1;ratioP1;P2;durP2;ratioP2
13799;SDS011;6971;50.028;9.258;2023-09-18T00:02:59;4.00;;;3.60;;
13799;SDS011;6971;50.028;9.258;2023-09-18T00:08:03;5.77;;;3.90;;
13799;SDS011;6971;50.028;9.258;2023-09-18T00:13:03;3.80;;;3.50;;
13799;SDS011;6971;50.028;9.258;2023-09-18T00:18:03;4.00;;;3.13;;
13799;SDS011;6971;50.028;9.258;2023-09-18T00:23:04;4.83;;;4.10;;
13799;SDS011;6971;50.028;9.258;2023-09-18T00:28:05;4.47;;;3.60;;
13799;SDS011;6971;50.028;9.258;2023-09-18T00:33:05;4.33;;;3.93;;
13799;SDS011;6971;50.028;9.258;2023-09-18T00:38:06;5.17;;;3.67;;
13799;SDS011;6971;50.028;9.258;2023-09-18T00:43:07;4.73;;;3.77;;
13799;SDS011;6971;50.028;9.258;2023-09-18T00:48:08;5.30;;;3.80;;
13799;SDS011;6971;50.028;9.258;2023-09-18T00:53:08;4.40;;;3.80;;
13799;SDS011;6971;50.028;9.258;2023-09-18T00:58:10;3.97;;;3.63;;
13799;SDS011;6971;50.028;9.258;2023-09-18T01:03:10;3.90;;;3.57;;
13799;SDS011;6971;50.028;9.258;2023-09-18T01:08:11;3.87;;;3.50;;
13799;SDS011;6971;50.028;9.258;2023-09-18T01:13:12;4.43;;;3.73;;
13799;SDS011;6971;50.028;9.258;2023-09-18T01:18:16;4.13;;;3.40;;
13799;SDS011;6971;50.028;9.258;2023-09-18T01:23:17;4.20;;;3.80;;
13799;SDS011;6971;50.028;9.258;2023-09-18T01:28:17;3.87;;;3.40;;
13799;SDS011;6971;50.028;9.258;2023-09-18T01:33:17;3.80;;;3.40;;
13799;SDS011;6971;50.028;9.258;2023-09-18T01:38:20;3.67;;;3.33;;
13799;SDS011;6971;50.028;9.258;2023-09-18T01:43:22;3.93;;;3.53;;
13799;SDS011;6971;50.028;9.258;2023-09-18T01:48:22;3.97;;;3.30;;
13799;SDS011;6971;50.028;9.258;2023-09-18T01:53:23;6.40;;;4.17;;
13799;SDS011;6971;50.028;9.258;2023-09-18T01:58:24;4.50;;;3.33;;
13799;SDS011;6971;50.028;9.258;2023-09-18T02:03:24;4.37;;;3.37;;
13799;SDS011;6971;50.028;9.258;2023-09-18T02:08:25;3.27;;;2.93;;
13799;SDS011;6971;50.028;9.258;2023-09-18T02:13:25;3.47;;;3.17;;
13799;SDS011;6971;50.028;9.258;2023-09-18T02:18:25;3.93;;;3.53;;
13799;SDS011;6971;50.028;9.258;2023-09-18T02:23:26;4.10;;;3.22;;
13799;SDS011;6971;50.028;9.258;2023-09-18T02:28:26;3.90;;;3.60;;
13799;SDS011;6971;50.028;9.258;2023-09-18T02:33:26;4.00;;;3.60;;
13799;SDS011;6971;50.028;9.258;2023-09-18T02:38:27;3.57;;;3.27;;
13799;SDS011;6971;50.028;9.258;2023-09-18T02:43:28;3.40;;;3.10;;
13799;SDS011;6971;50.028;9.258;2023-09-18T02:48:28;5.90;;;3.07;;
13799;SDS011;6971;50.028;9.258;2023-09-18T02:53:29;4.00;;;3.60;;
13799;SDS011;6971;50.028;9.258;2023-09-18T02:58:29;5.43;;;3.73;;
13799;SDS011;6971;50.028;9.258;2023-09-18T03:03:30;3.93;;;3.60;;
13799;SDS011;6971;50.028;9.258;2023-09-18T03:08:30;4.37;;;3.97;;
13799;SDS011;6971;50.028;9.258;2023-09-18T03:13:31;4.40;;;4.00;;
13799;SDS011;6971;50.028;9.258;2023-09-18T03:18:31;4.30;;;3.83;;
13799;SDS011;6971;50.028;9.258;2023-09-18T03:23:32;4.70;;;4.17;;
13799;SDS011;6971;50.028;9.258;2023-09-18T03:28:32;6.77;;;4.73;;
13799;SDS011;6971;50.028;9.258;2023-09-18T03:33:32;6.03;;;4.53;;
13799;SDS011;6971;50.028;9.258;2023-09-18T03:38:33;5.30;;;4.37;;
13799;SDS011;6971;50.028;9.258;2023-09-18T03:43:35;5.23;;;4.73;;
13799;SDS011;6971;50.028;9.258;2023-09-18T03:48:35;5.33;;;4.23;;
13799;SDS011;6971;50.028;9.258;2023-09-18T03:53:39;5.90;;;4.50;;
13799;SDS011;6971;50.028;9.258;2023-09-18T03:58:39;4.43;;;4.03;;
13799;SDS011;6971;50.028;9.258;2023-09-18T04:03:39;6.70;;;4.53;;
13799;SDS011;6971;50.028;9.258;2023-09-18T04:08:40;5.80;;;4.53;;
13799;SDS011;6971;50.028;9.258;2023-09-18T04:13:40;4.53;;;4.03;;
13799;SDS011;6971;50.028;9.258;2023-09-18T04:18:40;5.20;;;4.70;;
13799;SDS011;6971;50.028;9.258;2023-09-18T04:23:43;4.50;;;3.73;;
13799;SDS011;6971;50.028;9.258;2023-09-18T04:28:43;5.53;;;4.80;;
13799;SDS011;6971;50.028;9.258;2023-09-18T04:33:43;5.30;;;4.77;;
13799;SDS011;6971;50.028;9.258;2023-09-18T04:38:45;5.20;;;4.03;;
13799;SDS011;6971;50.028;9.258;2023-09-18T04:43:45;6.17;;;4.13;;
13799;SDS011;6971;50.028;9.258;2023-09-18T04:48:46;5.27;;;3.93;;
13799;SDS011;6971;50.028;9.258;2023-09-18T04:53:47;4.93;;;4.43;;
13799;SDS011;6971;50.028;9.258;2023-09-18T04:58:47;7.30;;;3.93;;
13799;SDS011;6971;50.028;9.258;2023-09-18T05:03:47;5.67;;;4.57;;
13799;SDS011;6971;50.028;9.258;2023-09-18T05:08:48;5.63;;;4.53;;
13799;SDS011;6971;50.028;9.258;2023-09-18T05:13:48;5.00;;;4.40;;
13799;SDS011;6971;50.028;9.258;2023-09-18T05:18:49;7.03;;;4.90;;
13799;SDS011;6971;50.028;9.258;2023-09-18T05:23:50;6.30;;;4.73;;
13799;SDS011;6971;50.028;9.258;2023-09-18T05:28:50;6.80;;;5.47;;
13799;SDS011;6971;50.028;9.258;2023-09-18T05:33:51;4.77;;;4.27;;
13799;SDS011;6971;50.028;9.258;2023-09-18T05:38:51;4.40;;;3.77;;
13799;SDS011;6971;50.028;9.258;2023-09-18T05:43:51;4.57;;;3.90;;
13799;SDS011;6971;50.028;9.258;2023-09-18T05:48:52;6.40;;;4.10;;
13799;SDS011;6971;50.028;9.258;2023-09-18T05:53:56;8.93;;;4.50;;
13799;SDS011;6971;50.028;9.258;2023-09-18T05:58:57;8.30;;;5.20;;
13799;SDS011;6971;50.028;9.258;2023-09-18T06:03:57;5.97;;;4.73;;
13799;SDS011;6971;50.028;9.258;2023-09-18T06:08:57;4.37;;;3.70;;
13799;SDS011;6971;50.028;9.258;2023-09-18T06:13:58;4.90;;;4.20;;
13799;SDS011;6971;50.028;9.258;2023-09-18T06:18:58;5.20;;;4.33;;
13799;SDS011;6971;50.028;9.258;2023-09-18T06:24:00;3.60;;;3.27;;
13799;SDS011;6971;50.028;9.258;2023-09-18T06:29:00;6.20;;;3.77;;
13799;SDS011;6971;50.028;9.258;2023-09-18T06:34:02;6.13;;;4.50;;
13799;SDS011;6971;50.028;9.258;2023-09-18T06:39:02;6.00;;;4.07;;
13799;SDS011;6971;50.028;9.258;2023-09-18T06:44:03;6.57;;;3.80;;
13799;SDS011;6971;50.028;9.258;2023-09-18T06:49:03;5.17;;;3.70;;
13799;SDS011;6971;50.028;9.258;2023-09-18T06:54:04;4.63;;;3.40;;
13799;SDS011;6971;50.028;9.258;2023-09-18T06:59:04;4.80;;;3.33;;
13799;SDS011;6971;50.028;9.258;2023-09-18T07:04:04;4.20;;;3.77;;
13799;SDS011;6971;50.028;9.258;2023-09-18T07:09:05;9.20;;;3.93;;
13799;SDS011;6971;50.028;9.258;2023-09-18T07:14:07;4.90;;;3.70;;
13799;SDS011;6971;50.028;9.258;2023-09-18T07:19:07;5.03;;;3.70;;
13799;SDS011;6971;50.028;9.258;2023-09-18T07:24:11;5.03;;;3.97;;
13799;SDS011;6971;50.028;9.258;2023-09-18T07:29:16;5.00;;;4.10;;
13799;SDS011;6971;50.028;9.258;2023-09-18T07:34:17;5.03;;;3.60;;
13799;SDS011;6971;50.028;9.258;2023-09-18T07:39:17;6.00;;;3.70;;
13799;SDS011;6971;50.028;9.258;2023-09-18T07:44:21;7.43;;;3.40;;
13799;SDS011;6971;50.028;9.258;2023-09-18T07:49:22;4.93;;;3.60;;
13799;SDS011;6971;50.028;9.258;2023-09-18T07:54:22;6.60;;;4.27;;
13799;SDS011;6971;50.028;9.258;2023-09-18T07:59:23;4.40;;;3.17;;
13799;SDS011;6971;50.028;9.258;2023-09-18T08:04:32;5.80;;;3.20;;
13799;SDS011;6971;50.028;9.258;2023-09-18T08:09:59;3.70;;;3.00;;
13799;SDS011;6971;50.028;9.258;2023-09-18T08:14:59;3.87;;;2.57;;
13799;SDS011;6971;50.028;9.258;2023-09-18T08:25:36;6.17;;;2.07;;
13799;SDS011;6971;50.028;9.258;2023-09-18T08:31:34;4.03;;;1.77;;
13799;SDS011;6971;50.028;9.258;2023-09-18T08:37:56;5.07;;;1.77;;
13799;SDS011;6971;50.028;9.258;2023-09-18T08:43:07;2.30;;;1.70;;
13799;SDS011;6971;50.028;9.258;2023-09-18T08:49:32;3.90;;;1.63;;
13799;SDS011;6971;50.028;9.258;2023-09-18T08:54:36;4.43;;;1.80;;
13799;SDS011;6971;50.028;9.258;2023-09-18T08:59:37;2.17;;;1.40;;
13799;SDS011;6971;50.028;9.258;2023-09-18T09:04:39;4.30;;;1.47;;
13799;SDS011;6971;50.028;9.258;2023-09-18T09:09:40;2.13;;;1.43;;
13799;SDS011;6971;50.028;9.258;2023-09-18T09:15:01;1.53;;;1.23;;
13799;SDS011;6971;50.028;9.258;2023-09-18T09:20:12;2.80;;;1.70;;
13799;SDS011;6971;50.028;9.258;2023-09-18T09:25:22;1.90;;;1.40;;
13799;SDS011;6971;50.028;9.258;2023-09-18T09:30:39;1.30;;;1.20;;
13799;SDS011;6971;50.028;9.258;2023-09-18T09:35:40;2.03;;;1.20;;
13799;SDS011;6971;50.028;9.258;2023-09-18T09:40:42;2.33;;;1.60;;
13799;SDS011;6971;50.028;9.258;2023-09-18T09:45:46;3.53;;;1.63;;
13799;SDS011;6971;50.028;9.258;2023-09-18T09:50:47;1.97;;;1.20;;
13799;SDS011;6971;50.028;9.258;2023-09-18T09:55:55;1.30;;;0.97;;
13799;SDS011;6971;50.028;9.258;2023-09-18T10:00:57;1.27;;;1.17;;
13799;SDS011;6971;50.028;9.258;2023-09-18T10:06:03;3.87;;;1.20;;
13799;SDS011;6971;50.028;9.258;2023-09-18T10:11:08;1.40;;;0.90;;
13799;SDS011;6971;50.028;9.258;2023-09-18T10:16:16;0.77;;;0.77;;
13799;SDS011;6971;50.028;9.258;2023-09-18T10:21:26;1.40;;;0.90;;
13799;SDS011;6971;50.028;9.258;2023-09-18T10:26:33;1.87;;;1.03;;
13799;SDS011;6971;50.028;9.258;2023-09-18T10:31:39;1.27;;;0.77;;
13799;SDS011;6971;50.028;9.258;2023-09-18T10:36:41;1.53;;;1.13;;
13799;SDS011;6971;50.028;9.258;2023-09-18T10:41:48;3.67;;;1.50;;
13799;SDS011;6971;50.028;9.258;2023-09-18T10:46:53;1.83;;;0.80;;
13799;SDS011;6971;50.028;9.258;2023-09-18T10:51:54;2.10;;;1.20;;
13799;SDS011;6971;50.028;9.258;2023-09-18T10:56:56;0.90;;;0.80;;
13799;SDS011;6971;50.028;9.258;2023-09-18T11:02:04;1.90;;;1.17;;
13799;SDS011;6971;50.028;9.258;2023-09-18T11:07:06;2.30;;;1.27;;
13799;SDS011;6971;50.028;9.258;2023-09-18T11:12:08;2.73;;;1.17;;
13799;SDS011;6971;50.028;9.258;2023-09-18T11:17:28;3.70;;;1.23;;
13799;SDS011;6971;50.028;9.258;2023-09-18T11:22:35;1.10;;;0.97;;
13799;SDS011;6971;50.028;9.258;2023-09-18T11:27:58;2.23;;;1.23;;
13799;SDS011;6971;50.028;9.258;2023-09-18T11:32:59;2.87;;;1.13;;
13799;SDS011;6971;50.028;9.258;2023-09-18T11:38:03;2.97;;;1.30;;
13799;SDS011;6971;50.028;9.258;2023-09-18T11:43:21;3.07;;;1.10;;
13799;SDS011;6971;50.028;9.258;2023-09-18T11:48:29;2.57;;;1.20;;
13799;SDS011;6971;50.028;9.258;2023-09-18T11:53:34;3.20;;;1.10;;
13799;SDS011;6971;50.028;9.258;2023-09-18T11:58:50;2.53;;;1.03;;
13799;SDS011;6971;50.028;9.258;2023-09-18T12:03:53;2.90;;;0.97;;
13799;SDS011;6971;50.028;9.258;2023-09-18T12:08:55;1.20;;;1.10;;
13799;SDS011;6971;50.028;9.258;2023-09-18T12:13:56;1.20;;;1.10;;
13799;SDS011;6971;50.028;9.258;2023-09-18T12:18:59;3.90;;;1.57;;
13799;SDS011;6971;50.028;9.258;2023-09-18T12:24:01;1.70;;;1.20;;
13799;SDS011;6971;50.028;9.258;2023-09-18T12:29:05;3.17;;;1.00;;
13799;SDS011;6971;50.028;9.258;2023-09-18T12:34:20;1.10;;;1.00;;
13799;SDS011;6971;50.028;9.258;2023-09-18T12:39:24;2.77;;;1.23;;
13799;SDS011;6971;50.028;9.258;2023-09-18T12:44:33;2.13;;;1.10;;
13799;SDS011;6971;50.028;9.258;2023-09-18T12:49:34;2.40;;;1.10;;
13799;SDS011;6971;50.028;9.258;2023-09-18T12:59:39;2.83;;;1.10;;
13799;SDS011;6971;50.028;9.258;2023-09-18T13:04:39;2.17;;;1.20;;
13799;SDS011;6971;50.028;9.258;2023-09-18T13:09:41;2.87;;;1.47;;
13799;SDS011;6971;50.028;9.258;2023-09-18T13:14:59;2.63;;;1.47;;
13799;SDS011;6971;50.028;9.258;2023-09-18T13:20:11;1.43;;;1.10;;
13799;SDS011;6971;50.028;9.258;2023-09-18T13:25:22;3.37;;;1.23;;
13799;SDS011;6971;50.028;9.258;2023-09-18T13:30:25;2.33;;;1.43;;
13799;SDS011;6971;50.028;9.258;2023-09-18T13:35:28;1.17;;;1.07;;
13799;SDS011;6971;50.028;9.258;2023-09-18T13:40:29;1.57;;;1.30;;
13799;SDS011;6971;50.028;9.258;2023-09-18T13:45:34;2.90;;;1.40;;
13799;SDS011;6971;50.028;9.258;2023-09-18T13:50:37;2.80;;;1.50;;
13799;SDS011;6971;50.028;9.258;2023-09-18T13:55:39;3.57;;;1.00;;
13799;SDS011;6971;50.028;9.258;2023-09-18T14:00:42;3.20;;;1.40;;
13799;SDS011;6971;50.028;9.258;2023-09-18T14:05:44;1.70;;;1.23;;
13799;SDS011;6971;50.028;9.258;2023-09-18T14:10:44;2.10;;;1.67;;
13799;SDS011;6971;50.028;9.258;2023-09-18T14:15:45;2.33;;;1.43;;
13799;SDS011;6971;50.028;9.258;2023-09-18T14:20:46;2.57;;;1.27;;
13799;SDS011;6971;50.028;9.258;2023-09-18T14:25:47;2.77;;;1.30;;
13799;SDS011;6971;50.028;9.258;2023-09-18T14:30:51;3.23;;;1.30;;
13799;SDS011;6971;50.028;9.258;2023-09-18T14:35:51;1.87;;;1.67;;
13799;SDS011;6971;50.028;9.258;2023-09-18T14:40:52;1.33;;;1.17;;
13799;SDS011;6971;50.028;9.258;2023-09-18T14:46:00;1.60;;;1.30;;
13799;SDS011;6971;50.028;9.258;2023-09-18T14:51:00;2.33;;;1.30;;
13799;SDS011;6971;50.028;9.258;2023-09-18T14:56:02;1.33;;;1.13;;
13799;SDS011;6971;50.028;9.258;2023-09-18T15:01:05;1.57;;;1.10;;
13799;SDS011;6971;50.028;9.258;2023-09-18T15:06:07;2.07;;;1.00;;
13799;SDS011;6971;50.028;9.258;2023-09-18T15:11:07;2.00;;;1.37;;
13799;SDS011;6971;50.028;9.258;2023-09-18T15:16:08;1.57;;;1.17;;
13799;SDS011;6971;50.028;9.258;2023-09-18T15:21:08;1.73;;;1.10;;
13799;SDS011;6971;50.028;9.258;2023-09-18T15:26:10;1.43;;;1.00;;
13799;SDS011;6971;50.028;9.258;2023-09-18T15:31:12;2.33;;;1.17;;
13799;SDS011;6971;50.028;9.258;2023-09-18T15:36:13;1.37;;;1.20;;
13799;SDS011;6971;50.028;9.258;2023-09-18T15:41:14;1.83;;;1.10;;
13799;SDS011;6971;50.028;9.258;2023-09-18T15:46:15;1.80;;;1.10;;
13799;SDS011;6971;50.028;9.258;2023-09-18T15:51:18;1.43;;;1.00;;
13799;SDS011;6971;50.028;9.258;2023-09-18T15:56:18;4.57;;;1.20;;
13799;SDS011;6971;50.028;9.258;2023-09-18T16:01:20;2.60;;;0.93;;
13799;SDS011;6971;50.028;9.258;2023-09-18T16:06:21;3.23;;;1.20;;
13799;SDS011;6971;50.028;9.258;2023-09-18T16:11:21;1.20;;;1.10;;
13799;SDS011;6971;50.028;9.258;2023-09-18T16:16:21;1.90;;;1.10;;
13799;SDS011;6971;50.028;9.258;2023-09-18T16:21:22;2.03;;;1.10;;
13799;SDS011;6971;50.028;9.258;2023-09-18T16:26:23;2.30;;;1.40;;
13799;SDS011;6971;50.028;9.258;2023-09-18T16:31:24;3.00;;;1.40;;
13799;SDS011;6971;50.028;9.258;2023-09-18T16:36:26;3.30;;;1.30;;
13799;SDS011;6971;50.028;9.258;2023-09-18T16:41:27;2.10;;;1.20;;
13799;SDS011;6971;50.028;9.258;2023-09-18T16:46:27;1.10;;;1.00;;
13799;SDS011;6971;50.028;9.258;2023-09-18T16:51:28;2.63;;;0.90;;
13799;SDS011;6971;50.028;9.258;2023-09-18T16:56:30;1.37;;;1.03;;
13799;SDS011;6971;50.028;9.258;2023-09-18T17:01:30;7.40;;;5.10;;
13799;SDS011;6971;50.028;9.258;2023-09-18T17:06:32;1.77;;;1.50;;
13799;SDS011;6971;50.028;9.258;2023-09-18T17:11:35;2.90;;;1.10;;
13799;SDS011;6971;50.028;9.258;2023-09-18T17:16:35;2.37;;;1.53;;
13799;SDS011;6971;50.028;9.258;2023-09-18T17:21:37;1.83;;;1.00;;
13799;SDS011;6971;50.028;9.258;2023-09-18T17:26:37;2.43;;;1.10;;
13799;SDS011;6971;50.028;9.258;2023-09-18T17:31:38;1.30;;;1.20;;
13799;SDS011;6971;50.028;9.258;2023-09-18T17:36:38;1.80;;;1.03;;
13799;SDS011;6971;50.028;9.258;2023-09-18T17:41:39;2.73;;;1.07;;
13799;SDS011;6971;50.028;9.258;2023-09-18T17:46:42;3.03;;;1.20;;
13799;SDS011;6971;50.028;9.258;2023-09-18T17:51:44;2.20;;;0.90;;
13799;SDS011;6971;50.028;9.258;2023-09-18T17:56:45;1.30;;;1.20;;
13799;SDS011;6971;50.028;9.258;2023-09-18T18:01:46;1.20;;;1.00;;
13799;SDS011;6971;50.028;9.258;2023-09-18T18:06:47;2.60;;;1.20;;
13799;SDS011;6971;50.028;9.258;2023-09-18T18:11:49;1.53;;;1.20;;
13799;SDS011;6971;50.028;9.258;2023-09-18T18:16:50;1.97;;;1.30;;
13799;SDS011;6971;50.028;9.258;2023-09-18T18:21:51;1.17;;;1.07;;
13799;SDS011;6971;50.028;9.258;2023-09-18T18:26:51;1.10;;;1.00;;
13799;SDS011;6971;50.028;9.258;2023-09-18T18:31:53;1.53;;;1.20;;
13799;SDS011;6971;50.028;9.258;2023-09-18T18:36:55;1.37;;;0.83;;
13799;SDS011;6971;50.028;9.258;2023-09-18T18:41:59;1.40;;;1.07;;
13799;SDS011;6971;50.028;9.258;2023-09-18T18:47:00;1.57;;;1.20;;
13799;SDS011;6971;50.028;9.258;2023-09-18T18:52:02;1.47;;;1.10;;
13799;SDS011;6971;50.028;9.258;2023-09-18T18:57:05;1.13;;;1.00;;
13799;SDS011;6971;50.028;9.258;2023-09-18T19:02:06;1.77;;;1.00;;
13799;SDS011;6971;50.028;9.258;2023-09-18T19:07:06;1.33;;;1.13;;
13799;SDS011;6971;50.028;9.258;2023-09-18T19:12:09;1.10;;;1.00;;
13799;SDS011;6971;50.028;9.258;2023-09-18T19:17:10;1.00;;;0.90;;
13799;SDS011;6971;50.028;9.258;2023-09-18T19:22:10;2.47;;;1.27;;
13799;SDS011;6971;50.028;9.258;2023-09-18T19:27:11;1.10;;;1.00;;
13799;SDS011;6971;50.028;9.258;2023-09-18T19:32:13;1.43;;;1.10;;
13799;SDS011;6971;50.028;9.258;2023-09-18T19:37:13;0.87;;;0.83;;
13799;SDS011;6971;50.028;9.258;2023-09-18T19:42:13;0.80;;;0.80;;
13799;SDS011;6971;50.028;9.258;2023-09-18T19:47:16;1.27;;;0.90;;
13799;SDS011;6971;50.028;9.258;2023-09-18T19:52:18;1.77;;;1.13;;
13799;SDS011;6971;50.028;9.258;2023-09-18T19:57:21;1.40;;;0.93;;
13799;SDS011;6971;50.028;9.258;2023-09-18T20:02:24;1.13;;;0.87;;
13799;SDS011;6971;50.028;9.258;2023-09-18T20:07:26;1.30;;;0.90;;
13799;SDS011;6971;50.028;9.258;2023-09-18T20:12:27;1.90;;;0.80;;
13799;SDS011;6971;50.028;9.258;2023-09-18T20:17:28;1.33;;;0.83;;
13799;SDS011;6971;50.028;9.258;2023-09-18T20:22:29;0.77;;;0.60;;
13799;SDS011;6971;50.028;9.258;2023-09-18T20:27:31;0.70;;;0.70;;
13799;SDS011;6971;50.028;9.258;2023-09-18T20:32:36;1.33;;;0.87;;
13799;SDS011;6971;50.028;9.258;2023-09-18T20:37:37;1.30;;;0.93;;
13799;SDS011;6971;50.028;9.258;2023-09-18T20:42:39;1.87;;;0.90;;
13799;SDS011;6971;50.028;9.258;2023-09-18T20:47:44;0.63;;;0.63;;
13799;SDS011;6971;50.028;9.258;2023-09-18T20:52:44;0.63;;;0.63;;
13799;SDS011;6971;50.028;9.258;2023-09-18T20:57:45;1.00;;;0.60;;
13799;SDS011;6971;50.028;9.258;2023-09-18T21:02:45;1.17;;;0.70;;
13799;SDS011;6971;50.028;9.258;2023-09-18T21:07:48;1.10;;;0.90;;
13799;SDS011;6971;50.028;9.258;2023-09-18T21:12:48;0.73;;;0.70;;
13799;SDS011;6971;50.028;9.258;2023-09-18T21:17:49;1.83;;;0.90;;
13799;SDS011;6971;50.028;9.258;2023-09-18T21:22:49;1.37;;;0.90;;
13799;SDS011;6971;50.028;9.258;2023-09-18T21:27:50;1.07;;;0.70;;
13799;SDS011;6971;50.028;9.258;2023-09-18T21:32:50;1.00;;;0.83;;
13799;SDS011;6971;50.028;9.258;2023-09-18T21:37:52;0.60;;;0.60;;
13799;SDS011;6971;50.028;9.258;2023-09-18T21:42:53;0.87;;;0.70;;
13799;SDS011;6971;50.028;9.258;2023-09-18T21:47:54;1.63;;;0.87;;
13799;SDS011;6971;50.028;9.258;2023-09-18T21:52:56;1.40;;;1.10;;
13799;SDS011;6971;50.028;9.258;2023-09-18T21:57:57;1.57;;;0.70;;
13799;SDS011;6971;50.028;9.258;2023-09-18T22:02:57;1.10;;;0.80;;
13799;SDS011;6971;50.028;9.258;2023-09-18T22:07:58;0.77;;;0.77;;
13799;SDS011;6971;50.028;9.258;2023-09-18T22:13:00;2.10;;;0.70;;
13799;SDS011;6971;50.028;9.258;2023-09-18T22:18:02;1.03;;;1.00;;
13799;SDS011;6971;50.028;9.258;2023-09-18T22:23:04;1.00;;;0.80;;
13799;SDS011;6971;50.028;9.258;2023-09-18T22:28:06;1.57;;;0.70;;
13799;SDS011;6971;50.028;9.258;2023-09-18T22:33:07;0.70;;;0.70;;
13799;SDS011;6971;50.028;9.258;2023-09-18T22:38:21;0.87;;;0.80;;
13799;SDS011;6971;50.028;9.258;2023-09-18T22:55:14;1.33;;;0.80;;
13799;SDS011;6971;50.028;9.258;2023-09-18T23:00:19;0.80;;;0.70;;
13799;SDS011;6971;50.028;9.258;2023-09-18T23:05:40;0.67;;;0.50;;
13799;SDS011;6971;50.028;9.258;2023-09-18T23:10:41;1.97;;;1.03;;
13799;SDS011;6971;50.028;9.258;2023-09-18T23:15:42;0.70;;;0.70;;
13799;SDS011;6971;50.028;9.258;2023-09-18T23:20:43;1.77;;;0.90;;
13799;SDS011;6971;50.028;9.258;2023-09-18T23:25:44;0.90;;;0.90;;
13799;SDS011;6971;50.028;9.258;2023-09-18T23:30:45;1.90;;;0.90;;
13799;SDS011;6971;50.028;9.258;2023-09-18T23:35:46;0.73;;;0.70;;
13799;SDS011;6971;50.028;9.258;2023-09-18T23:40:47;1.00;;;0.90;;
13799;SDS011;6971;50.028;9.258;2023-09-18T23:45:48;1.13;;;0.90;;
13799;SDS011;6971;50.028;9.258;2023-09-18T23:50:51;2.00;;;0.83;;
13799;SDS011;6971;50.028;9.258;2023-09-18T23:56:02;1.23;;;1.13;;
